createdAt,value
2023-01-08T00:00:39.854Z,11.50
2023-01-08T00:03:12.831Z,11.50
2023-01-08T00:05:48.198Z,11.40
2023-01-08T00:08:21.790Z,11.40
2023-01-08T00:10:59.180Z,11.40
2023-01-08T00:13:32.862Z,11.50
2023-01-08T00:16:09.293Z,11.40
2023-01-08T00:18:43.314Z,11.50
2023-01-08T00:21:18.910Z,11.50
2023-01-08T00:23:52.249Z,11.50
2023-01-08T00:26:25.569Z,11.40
2023-01-08T00:28:58.571Z,11.40
2023-01-08T00:31:31.721Z,11.40
2023-01-08T00:34:04.844Z,11.40
2023-01-08T00:36:40.091Z,11.50
2023-01-08T00:39:13.604Z,11.50
2023-01-08T00:41:47.064Z,11.50
2023-01-08T00:44:20.270Z,11.60
2023-01-08T00:46:53.794Z,11.60
2023-01-08T00:49:27.288Z,11.60
2023-01-08T00:52:03.047Z,11.50
2023-01-08T00:54:36.323Z,11.60
2023-01-08T00:57:09.705Z,11.60
2023-01-08T00:59:42.728Z,11.50
2023-01-08T01:02:16.104Z,11.60
2023-01-08T01:04:48.992Z,11.60
2023-01-08T01:07:24.361Z,11.60
2023-01-08T01:09:57.887Z,11.70
2023-01-08T01:12:31.410Z,11.60
2023-01-08T01:15:05.006Z,11.60
2023-01-08T01:17:38.025Z,11.60
2023-01-08T01:20:12.539Z,11.40
2023-01-08T01:22:48.584Z,11.40
2023-01-08T01:25:22.108Z,11.50
2023-01-08T01:27:56.683Z,11.50
2023-01-08T01:30:31.208Z,11.60
2023-01-08T01:33:05.391Z,11.70
2023-01-08T01:35:40.125Z,11.70
2023-01-08T01:38:16.160Z,11.80
2023-01-08T01:40:49.207Z,11.90
2023-01-08T01:43:45.682Z,11.90
2023-01-08T01:46:27.375Z,11.90
2023-01-08T01:49:05.610Z,12.00
2023-01-08T01:51:40.037Z,12.00
2023-01-08T01:54:17.026Z,11.90
2023-01-08T01:56:51.176Z,11.80
2023-01-08T01:59:25.125Z,12.00
2023-01-08T02:02:00.324Z,11.90
2023-01-08T02:04:34.290Z,12.00
2023-01-08T02:07:15.262Z,11.70
2023-01-08T02:09:55.615Z,11.80
2023-01-08T02:12:34.952Z,11.70
2023-01-08T02:15:15.167Z,12.00
2023-01-08T02:17:57.712Z,12.10
2023-01-08T02:20:36.184Z,12.10
2023-01-08T02:23:22.840Z,11.80
2023-01-08T02:26:25.864Z,11.90
2023-01-08T02:29:02.569Z,12.00
2023-01-08T02:31:36.958Z,11.90
2023-01-08T02:34:10.385Z,12.20
2023-01-08T02:36:45.881Z,12.30
2023-01-08T02:39:52.236Z,12.30
2023-01-08T02:42:36.638Z,12.30
2023-01-08T02:45:18.054Z,12.30
2023-01-08T02:47:57.721Z,12.60
2023-01-08T02:50:35.875Z,12.70
2023-01-08T02:53:14.897Z,12.80
2023-01-08T02:55:52.353Z,13.00
2023-01-08T02:58:29.839Z,13.00
2023-01-08T03:01:05.869Z,13.00
2023-01-08T03:03:41.763Z,13.10
2023-01-08T03:06:17.714Z,13.10
2023-01-08T03:08:54.147Z,12.80
2023-01-08T03:11:28.503Z,13.10
2023-01-08T03:14:10.640Z,13.30
2023-01-08T03:16:49.929Z,13.20
2023-01-08T03:19:26.360Z,13.00
2023-01-08T03:22:00.400Z,13.30
2023-01-08T03:24:36.714Z,13.50
2023-01-08T03:27:12.919Z,13.50
2023-01-08T03:29:49.478Z,13.60
2023-01-08T03:32:26.301Z,13.70
2023-01-08T03:35:03.071Z,13.60
2023-01-08T03:37:43.984Z,13.60
2023-01-08T03:40:24.328Z,13.90
2023-01-08T03:42:59.310Z,13.90
2023-01-08T03:45:36.367Z,13.90
2023-01-08T03:48:11.173Z,14.00
2023-01-08T03:50:46.262Z,13.90
2023-01-08T03:53:20.487Z,13.80
2023-01-08T03:55:53.756Z,13.70
2023-01-08T03:58:27.341Z,13.80
2023-01-08T04:01:06.771Z,14.00
2023-01-08T04:03:42.763Z,14.10
2023-01-08T04:06:18.394Z,14.20
2023-01-08T04:08:55.034Z,14.10
2023-01-08T04:11:30.761Z,14.10
2023-01-08T04:14:06.403Z,14.00
2023-01-08T04:16:43.877Z,14.00
2023-01-08T04:19:20.540Z,14.10
2023-01-08T04:21:58.241Z,14.00
2023-01-08T04:24:34.281Z,14.00
2023-01-08T04:27:10.117Z,14.00
2023-01-08T04:29:45.566Z,14.20
2023-01-08T04:32:23.759Z,14.50
2023-01-08T04:34:59.629Z,14.30
2023-01-08T04:37:35.611Z,14.20
2023-01-08T04:40:12.534Z,14.40
2023-01-08T04:42:48.011Z,14.80
2023-01-08T04:45:23.917Z,14.90
2023-01-08T04:48:05.695Z,14.80
2023-01-08T04:50:41.557Z,14.50
2023-01-08T04:53:17.307Z,14.30
2023-01-08T04:55:52.784Z,14.30
2023-01-08T04:58:29.039Z,14.30
2023-01-08T05:01:04.841Z,14.30
2023-01-08T05:03:41.518Z,14.30
2023-01-08T05:06:15.825Z,14.30
2023-01-08T05:08:51.195Z,14.30
2023-01-08T05:11:25.761Z,14.20
2023-01-08T05:14:00.174Z,14.20
2023-01-08T05:16:35.087Z,14.10
2023-01-08T05:19:12.026Z,14.10
2023-01-08T05:21:46.782Z,14.00
2023-01-08T05:24:22.312Z,14.10
2023-01-08T05:26:56.361Z,14.10
2023-01-08T05:29:31.919Z,14.10
2023-01-08T05:32:06.970Z,14.00
2023-01-08T05:34:44.381Z,14.30
2023-01-08T05:37:20.048Z,14.20
2023-01-08T05:39:54.148Z,14.00
2023-01-08T05:42:29.319Z,14.20
2023-01-08T05:45:04.542Z,14.00
2023-01-08T05:47:39.365Z,14.20
2023-01-08T05:50:24.616Z,14.20
2023-01-08T05:52:59.451Z,14.10
2023-01-08T05:55:34.851Z,13.80
2023-01-08T05:58:10.047Z,13.80
2023-01-08T06:00:45.065Z,13.80
2023-01-08T06:03:19.812Z,13.80
2023-01-08T06:05:57.123Z,13.90
2023-01-08T06:08:32.332Z,13.70
2023-01-08T06:11:08.752Z,13.80
2023-01-08T06:13:45.887Z,13.70
2023-01-08T06:16:22.662Z,13.60
2023-01-08T06:18:58.868Z,13.70
2023-01-08T06:21:35.119Z,13.60
2023-01-08T06:24:10.796Z,13.70
2023-01-08T06:26:46.168Z,13.70
2023-01-08T06:29:22.695Z,13.70
2023-01-08T06:31:58.073Z,13.70
2023-01-08T06:34:37.928Z,13.80
2023-01-08T06:37:19.357Z,13.80
2023-01-08T06:39:54.597Z,13.80
2023-01-08T06:42:31.505Z,13.80
2023-01-08T06:45:06.820Z,13.90
2023-01-08T06:47:41.816Z,13.80
2023-01-08T06:50:17.390Z,13.90
2023-01-08T06:53:01.423Z,14.00
2023-01-08T06:55:37.545Z,14.10
2023-01-08T06:58:14.102Z,14.20
2023-01-08T07:00:50.007Z,14.00
2023-01-08T07:03:25.721Z,13.90
2023-01-08T07:06:01.773Z,13.90
2023-01-08T07:08:38.508Z,14.10
2023-01-08T07:11:13.992Z,14.20
2023-01-08T07:13:49.397Z,14.30
2023-01-08T07:16:25.380Z,14.40
2023-01-08T07:19:00.818Z,14.30
2023-01-08T07:21:37.462Z,14.30
2023-01-08T07:24:15.595Z,14.20
2023-01-08T07:26:51.511Z,14.10
2023-01-08T07:29:27.865Z,14.00
2023-01-08T07:32:03.421Z,14.00
2023-01-08T07:34:39.834Z,14.00
2023-01-08T07:37:15.429Z,14.00
2023-01-08T07:39:54.368Z,14.10
2023-01-08T07:42:32.037Z,14.10
2023-01-08T07:45:07.957Z,14.10
2023-01-08T07:47:43.772Z,14.30
2023-01-08T07:50:19.722Z,14.30
2023-01-08T07:52:54.959Z,14.30
2023-01-08T07:55:32.737Z,14.20
2023-01-08T07:58:12.985Z,14.00
2023-01-08T08:00:49.084Z,13.90
2023-01-08T08:03:24.802Z,14.00
2023-01-08T08:06:11.359Z,13.90
2023-01-08T08:08:48.058Z,13.90
2023-01-08T08:11:27.167Z,13.90
2023-01-08T08:14:03.490Z,13.80
2023-01-08T08:16:40.426Z,13.90
2023-01-08T08:19:17.767Z,14.00
2023-01-08T08:21:58.859Z,14.00
2023-01-08T08:24:38.619Z,13.80
2023-01-08T08:27:18.368Z,13.90
2023-01-08T08:29:59.169Z,13.80
2023-01-08T08:32:36.717Z,13.80
2023-01-08T08:35:12.982Z,13.70
2023-01-08T08:37:49.858Z,13.60
2023-01-08T08:40:25.699Z,13.50
2023-01-08T08:43:12.150Z,13.50
2023-01-08T08:45:49.624Z,13.60
2023-01-08T08:48:29.873Z,13.60
2023-01-08T08:51:09.795Z,13.70
2023-01-08T08:53:45.638Z,13.70
2023-01-08T08:56:24.173Z,13.70
2023-01-08T08:59:03.376Z,13.60
2023-01-08T09:01:42.400Z,13.60
2023-01-08T09:04:17.730Z,13.50
2023-01-08T09:06:59.430Z,13.40
2023-01-08T09:09:34.443Z,13.40
2023-01-08T09:12:10.311Z,13.50
2023-01-08T09:14:47.634Z,13.40
2023-01-08T09:17:23.337Z,13.50
2023-01-08T09:19:57.134Z,13.60
2023-01-08T09:22:34.087Z,13.50
2023-01-08T09:25:08.207Z,13.50
2023-01-08T09:27:42.898Z,13.50
2023-01-08T09:30:19.919Z,13.40
2023-01-08T09:32:54.140Z,13.40
2023-01-08T09:35:28.729Z,13.30
2023-01-08T09:38:04.897Z,13.30
2023-01-08T09:40:44.367Z,13.30
2023-01-08T09:43:24.001Z,13.30
2023-01-08T09:46:07.822Z,13.30
2023-01-08T09:48:45.001Z,13.30
2023-01-08T09:51:20.930Z,13.40
2023-01-08T09:54:00.107Z,13.40
2023-01-08T09:56:34.039Z,13.30
2023-01-08T09:59:08.593Z,13.20
2023-01-08T10:01:46.120Z,13.30
2023-01-08T10:04:37.733Z,13.30
2023-01-08T10:07:23.606Z,13.20
2023-01-08T10:09:59.501Z,13.20
2023-01-08T10:12:35.189Z,13.20
2023-01-08T10:15:13.899Z,13.20
2023-01-08T10:17:53.065Z,13.20
2023-01-08T10:20:28.817Z,13.00
2023-01-08T10:23:16.553Z,13.00
2023-01-08T10:25:56.017Z,13.10
2023-01-08T10:28:30.919Z,13.10
2023-01-08T10:31:08.987Z,13.00
2023-01-08T10:33:48.419Z,13.00
2023-01-08T10:36:28.931Z,13.00
2023-01-08T10:39:05.463Z,13.10
2023-01-08T10:41:44.215Z,13.10
2023-01-08T10:44:22.066Z,13.00
2023-01-08T10:46:58.668Z,13.00
2023-01-08T10:49:43.587Z,13.10
2023-01-08T10:52:36.023Z,13.00
2023-01-08T10:55:28.575Z,13.00
2023-01-08T10:58:05.013Z,13.00
2023-01-08T11:00:41.771Z,13.00
2023-01-08T11:03:36.072Z,12.90
2023-01-08T11:06:27.229Z,13.00
2023-01-08T11:09:04.791Z,12.90
2023-01-08T11:11:41.948Z,13.00
2023-01-08T11:14:25.606Z,12.90
2023-01-08T11:17:02.390Z,13.00
2023-01-08T11:19:41.281Z,12.90
2023-01-08T11:22:28.723Z,12.90
2023-01-08T11:25:05.813Z,12.90
2023-01-08T11:27:45.958Z,13.00
2023-01-08T11:30:25.175Z,13.00
2023-01-08T11:33:06.391Z,13.00
2023-01-08T11:35:45.321Z,12.90
2023-01-08T11:38:23.722Z,13.00
2023-01-08T11:41:11.777Z,12.90
2023-01-08T11:44:07.502Z,13.00
2023-01-08T11:46:51.303Z,13.10
2023-01-08T11:49:58.633Z,13.00
2023-01-08T11:52:47.197Z,12.90
2023-01-08T11:55:38.184Z,12.90
2023-01-08T11:58:27.144Z,12.90
2023-01-08T12:01:34.088Z,12.80
2023-01-08T12:04:28.604Z,12.90
2023-01-08T12:07:16.578Z,12.90
2023-01-08T12:10:02.533Z,12.90
2023-01-08T12:12:52.666Z,13.00
2023-01-08T12:15:36.767Z,12.90
2023-01-08T12:18:37.099Z,12.90
2023-01-08T12:21:33.527Z,13.00
2023-01-08T12:24:27.491Z,12.90
2023-01-08T12:27:11.135Z,13.00
2023-01-08T12:30:11.578Z,13.00
2023-01-08T12:32:54.230Z,13.10
2023-01-08T12:35:33.878Z,13.00
2023-01-08T12:38:16.276Z,12.90
2023-01-08T12:40:55.482Z,12.90
2023-01-08T12:43:35.768Z,12.70
2023-01-08T12:46:18.602Z,12.60
2023-01-08T12:48:57.007Z,12.60
2023-01-08T12:51:40.918Z,12.70
2023-01-08T12:54:27.444Z,12.70
2023-01-08T12:57:11.861Z,12.70
2023-01-08T12:59:53.432Z,12.70
2023-01-08T13:02:42.677Z,12.70
2023-01-08T13:05:32.941Z,12.80
2023-01-08T13:08:10.404Z,12.70
2023-01-08T13:10:55.690Z,12.70
2023-01-08T13:13:35.070Z,12.60
2023-01-08T13:16:24.464Z,12.60
2023-01-08T13:19:06.413Z,12.50
2023-01-08T13:21:45.588Z,12.50
2023-01-08T13:24:42.636Z,12.50
2023-01-08T13:27:36.914Z,12.50
2023-01-08T13:30:37.957Z,12.50
2023-01-08T13:33:51.295Z,12.50
2023-01-08T13:36:33.904Z,12.40
2023-01-08T13:39:26.427Z,12.40
2023-01-08T13:42:09.007Z,12.40
2023-01-08T13:44:46.874Z,12.30
2023-01-08T13:47:37.791Z,12.30
2023-01-08T13:50:29.036Z,12.30
2023-01-08T13:53:19.266Z,12.30
2023-01-08T13:56:02.748Z,12.30
2023-01-08T13:58:42.071Z,12.30
2023-01-08T14:01:36.458Z,12.30
2023-01-08T14:04:30.048Z,12.30
2023-01-08T14:07:32.442Z,12.20
2023-01-08T14:10:20.514Z,12.20
2023-01-08T14:12:56.327Z,12.20
2023-01-08T14:15:33.889Z,12.20
2023-01-08T14:18:14.766Z,12.20
2023-01-08T14:20:54.143Z,12.10
2023-01-08T14:23:36.123Z,12.20
2023-01-08T14:26:22.261Z,12.20
2023-01-08T14:29:01.077Z,12.10
2023-01-08T14:31:37.050Z,12.10
2023-01-08T14:34:18.221Z,12.00
2023-01-08T14:36:58.181Z,12.10
2023-01-08T14:39:44.476Z,12.10
2023-01-08T14:42:40.692Z,12.10
2023-01-08T14:45:28.259Z,12.10
2023-01-08T14:48:06.810Z,12.10
2023-01-08T14:50:45.388Z,12.00
2023-01-08T14:53:30.783Z,12.00
2023-01-08T14:56:07.842Z,11.90
2023-01-08T14:58:53.016Z,12.00
2023-01-08T15:01:58.942Z,11.90
2023-01-08T15:04:38.112Z,11.90
2023-01-08T15:07:23.675Z,12.00
2023-01-08T15:10:05.151Z,12.00
2023-01-08T15:12:40.957Z,12.00
2023-01-08T15:15:31.835Z,11.90
2023-01-08T15:18:14.861Z,11.80
2023-01-08T15:20:51.315Z,11.90
2023-01-08T15:23:33.683Z,11.90
2023-01-08T15:26:14.679Z,11.90
2023-01-08T15:28:58.170Z,12.00
2023-01-08T15:31:37.771Z,11.90
2023-01-08T15:34:15.405Z,12.00
2023-01-08T15:36:52.425Z,11.90
2023-01-08T15:39:28.438Z,11.90
2023-01-08T15:42:31.966Z,11.90
2023-01-08T15:45:10.126Z,11.80
2023-01-08T15:47:58.420Z,11.90
2023-01-08T15:50:40.056Z,11.90
2023-01-08T15:53:23.770Z,11.90
2023-01-08T15:56:00.059Z,11.90
2023-01-08T15:58:36.221Z,12.00
2023-01-08T16:01:15.794Z,11.90
2023-01-08T16:03:55.171Z,11.90
2023-01-08T16:06:35.829Z,12.00
2023-01-08T16:09:13.822Z,11.90
2023-01-08T16:11:51.083Z,11.90
2023-01-08T16:14:29.948Z,11.90
2023-01-08T16:17:08.171Z,12.00
2023-01-08T16:19:46.197Z,11.90
2023-01-08T16:22:22.101Z,11.90
2023-01-08T16:24:57.999Z,11.90
2023-01-08T16:27:35.083Z,11.90
2023-01-08T16:30:11.780Z,11.90
2023-01-08T16:32:49.240Z,11.80
2023-01-08T16:35:27.941Z,11.90
2023-01-08T16:38:03.601Z,11.80
2023-01-08T16:40:42.681Z,11.80
2023-01-08T16:43:25.195Z,11.80
2023-01-08T16:46:04.792Z,11.80
2023-01-08T16:48:40.755Z,11.80
2023-01-08T16:51:22.658Z,11.70
2023-01-08T16:53:58.867Z,11.80
2023-01-08T16:56:34.885Z,11.70
2023-01-08T16:59:22.208Z,11.70
2023-01-08T17:02:04.085Z,11.60
2023-01-08T17:04:40.162Z,11.70
2023-01-08T17:07:19.995Z,11.60
2023-01-08T17:09:55.684Z,11.70
2023-01-08T17:12:32.038Z,11.70
2023-01-08T17:15:08.717Z,11.70
2023-01-08T17:17:44.409Z,11.70
2023-01-08T17:20:21.038Z,11.70
2023-01-08T17:22:59.130Z,11.70
2023-01-08T17:25:33.891Z,11.70
2023-01-08T17:28:07.107Z,11.70
2023-01-08T17:30:44.348Z,11.70
2023-01-08T17:33:18.884Z,11.70
2023-01-08T17:35:53.080Z,11.70
2023-01-08T17:38:31.563Z,11.70
2023-01-08T17:41:08.006Z,11.70
2023-01-08T17:43:44.143Z,11.70
2023-01-08T17:46:18.438Z,11.70
2023-01-08T17:48:52.023Z,11.70
2023-01-08T17:51:32.037Z,11.70
2023-01-08T17:54:08.146Z,11.80
2023-01-08T17:56:41.607Z,11.70
2023-01-08T17:59:17.178Z,11.70
2023-01-08T18:01:53.446Z,11.70
2023-01-08T18:04:28.692Z,11.70
2023-01-08T18:07:03.794Z,11.70
2023-01-08T18:09:41.664Z,11.60
2023-01-08T18:12:14.753Z,11.60
2023-01-08T18:14:48.464Z,11.50
2023-01-08T18:17:22.193Z,11.60
2023-01-08T18:19:55.904Z,11.50
2023-01-08T18:22:30.037Z,11.50
2023-01-08T18:25:05.142Z,11.40
2023-01-08T18:27:39.916Z,11.40
2023-01-08T18:30:16.619Z,11.40
2023-01-08T18:32:52.523Z,11.40
2023-01-08T18:35:26.700Z,11.50
2023-01-08T18:38:00.824Z,11.50
2023-01-08T18:40:36.169Z,11.50
2023-01-08T18:43:10.162Z,11.50
2023-01-08T18:45:43.576Z,11.40
2023-01-08T18:48:16.958Z,11.50
2023-01-08T18:50:50.614Z,11.50
2023-01-08T18:53:26.417Z,11.50
2023-01-08T18:56:08.962Z,11.50
2023-01-08T18:58:43.302Z,11.40
2023-01-08T19:01:16.719Z,11.50
2023-01-08T19:03:49.836Z,11.40
2023-01-08T19:06:23.459Z,11.40
2023-01-08T19:08:57.832Z,11.40
2023-01-08T19:11:34.255Z,11.40
2023-01-08T19:14:08.007Z,11.40
2023-01-08T19:16:41.404Z,11.30
2023-01-08T19:19:15.371Z,11.30
2023-01-08T19:21:48.659Z,11.30
2023-01-08T19:24:21.583Z,11.30
2023-01-08T19:26:56.660Z,11.30
2023-01-08T19:29:30.138Z,11.30
2023-01-08T19:35:29.487Z,11.40
2023-01-08T19:38:03.163Z,11.30
2023-01-08T19:40:36.947Z,11.30
2023-01-08T19:43:29.373Z,11.30
2023-01-08T19:46:09.000Z,11.30
2023-01-08T19:48:45.785Z,11.40
2023-01-08T19:51:19.066Z,11.30
2023-01-08T19:53:52.360Z,11.30
2023-01-08T19:56:26.004Z,11.30
2023-01-08T19:59:02.302Z,11.20
2023-01-08T20:01:35.201Z,11.20
2023-01-08T20:04:08.857Z,11.20
2023-01-08T20:06:42.440Z,11.20
2023-01-08T20:09:15.810Z,11.00
2023-01-08T20:11:48.769Z,11.10
2023-01-08T20:14:23.821Z,11.10
2023-01-08T20:16:57.233Z,11.10
2023-01-08T20:19:32.024Z,11.00
2023-01-08T20:22:05.667Z,10.90
2023-01-08T20:24:39.457Z,10.80
2023-01-08T20:27:13.517Z,10.80
2023-01-08T20:29:48.609Z,10.80
2023-01-08T20:32:23.492Z,10.80
2023-01-08T20:34:56.744Z,10.80
2023-01-08T20:37:30.799Z,10.70
2023-01-08T20:40:04.278Z,10.60
2023-01-08T20:42:38.121Z,10.60
2023-01-08T20:45:14.498Z,10.60
2023-01-08T20:47:48.152Z,10.50
2023-01-08T20:50:21.642Z,10.50
2023-01-08T20:52:54.946Z,10.50
2023-01-08T20:55:27.915Z,10.40
2023-01-08T20:58:01.664Z,10.30
2023-01-08T21:00:37.144Z,10.20
2023-01-08T21:03:10.865Z,10.20
2023-01-08T21:05:44.772Z,10.20
2023-01-08T21:08:18.224Z,10.20
2023-01-08T21:10:59.916Z,10.10
2023-01-08T21:13:33.521Z,10.10
2023-01-08T21:16:11.472Z,10.10
2023-01-08T21:18:49.101Z,10.00
2023-01-08T21:21:24.906Z,10.00
2023-01-08T21:23:58.315Z,9.90
2023-01-08T21:26:32.407Z,10.00
2023-01-08T21:29:07.549Z,10.10
2023-01-08T21:31:43.928Z,10.10
2023-01-08T21:34:17.233Z,9.90
2023-01-08T21:36:50.265Z,9.90
2023-01-08T21:39:26.885Z,9.80
2023-01-08T21:42:16.566Z,9.80
2023-01-08T21:45:06.607Z,9.80
2023-01-08T21:47:42.643Z,9.80
2023-01-08T21:50:16.897Z,9.80
2023-01-08T21:53:05.945Z,9.80
2023-01-08T21:55:39.201Z,9.80
2023-01-08T21:58:12.602Z,9.80
2023-01-08T22:00:45.680Z,9.70
2023-01-08T22:03:23.770Z,9.70
2023-01-08T22:06:08.208Z,9.70
2023-01-08T22:08:41.508Z,9.80
2023-01-08T22:11:14.516Z,9.80
2023-01-08T22:13:47.440Z,9.70
2023-01-08T22:16:20.669Z,9.90
2023-01-08T22:18:55.659Z,9.90
2023-01-08T22:21:29.376Z,9.90
2023-01-08T22:24:02.679Z,10.10
2023-01-08T22:26:36.490Z,10.20
2023-01-08T22:29:11.906Z,10.00
2023-01-08T22:31:45.724Z,10.00
2023-01-08T22:34:21.224Z,10.10
2023-01-08T22:36:56.452Z,10.20
2023-01-08T22:39:29.851Z,10.10
2023-01-08T22:42:03.066Z,10.00
2023-01-08T22:44:38.827Z,10.00
2023-01-08T22:47:13.407Z,10.10
2023-01-08T22:49:49.064Z,10.10
2023-01-08T22:52:22.410Z,10.20
2023-01-08T22:54:58.203Z,10.10
2023-01-08T22:57:31.734Z,10.10
2023-01-08T23:00:06.317Z,10.00
2023-01-08T23:02:40.495Z,10.20
2023-01-08T23:05:15.592Z,10.30
2023-01-08T23:07:48.539Z,10.20
2023-01-08T23:10:22.111Z,10.20
2023-01-08T23:12:55.425Z,10.20
2023-01-08T23:15:28.460Z,10.20
2023-01-08T23:18:01.769Z,10.10
2023-01-08T23:20:37.139Z,10.10
2023-01-08T23:23:10.894Z,10.00
2023-01-08T23:25:44.720Z,10.10
2023-01-08T23:28:18.744Z,10.10
2023-01-08T23:30:52.485Z,10.10
2023-01-08T23:33:25.451Z,10.20
2023-01-08T23:36:00.160Z,10.20
2023-01-08T23:38:33.281Z,10.10
2023-01-08T23:41:08.653Z,9.90
2023-01-08T23:43:42.604Z,9.90
2023-01-08T23:46:16.612Z,9.80
2023-01-08T23:48:52.372Z,9.80
2023-01-08T23:51:28.409Z,10.00
2023-01-08T23:54:02.424Z,10.20
2023-01-08T23:56:36.095Z,10.20
2023-01-08T23:59:09.642Z,10.20
